createdAt,value
2022-10-02T00:02:14.265Z,51.35
2022-10-02T00:07:18.143Z,27.42
2022-10-02T00:12:24.260Z,35.17
2022-10-02T00:17:29.993Z,27.48
2022-10-02T00:22:38.361Z,28.27
2022-10-02T00:27:47.081Z,39.33
2022-10-02T00:32:57.949Z,29.33
2022-10-02T00:38:02.734Z,28.27
2022-10-02T00:43:15.185Z,33.25
2022-10-02T00:48:25.622Z,36.50
2022-10-02T00:53:33.750Z,41.47
2022-10-02T00:58:44.741Z,31.63
2022-10-02T01:03:53.101Z,20.33
2022-10-02T01:08:55.572Z,27.08
2022-10-02T01:13:59.692Z,34.28
2022-10-02T01:19:02.066Z,37.58
2022-10-02T01:24:07.761Z,32.63
2022-10-02T01:29:11.501Z,22.98
2022-10-02T01:34:13.883Z,17.70
2022-10-02T01:39:16.213Z,13.18
2022-10-02T01:44:19.901Z,11.57
2022-10-02T01:49:32.623Z,10.15
2022-10-02T01:54:42.043Z,11.80
2022-10-02T01:59:51.525Z,11.55
2022-10-02T02:04:55.976Z,9.90
2022-10-02T02:10:02.914Z,9.68
2022-10-02T02:15:08.662Z,9.13
2022-10-02T02:20:14.553Z,7.95
2022-10-02T02:25:19.242Z,15.43
2022-10-02T02:30:23.151Z,18.02
2022-10-02T02:35:27.251Z,12.00
2022-10-02T02:40:31.409Z,13.95
2022-10-02T02:45:37.252Z,17.02
2022-10-02T02:50:43.324Z,17.33
2022-10-02T02:55:47.640Z,17.02
2022-10-02T03:00:51.447Z,17.63
2022-10-02T03:05:58.224Z,14.05
2022-10-02T03:11:05.319Z,26.08
2022-10-02T03:16:16.945Z,32.70
2022-10-02T03:21:24.868Z,40.08
2022-10-02T03:26:31.087Z,44.42
2022-10-02T03:31:35.982Z,42.63
2022-10-02T03:36:38.770Z,45.92
2022-10-02T03:41:41.359Z,46.15
2022-10-02T03:46:45.088Z,47.95
2022-10-02T03:51:47.612Z,57.97
2022-10-02T03:56:54.176Z,46.50
2022-10-02T04:01:59.138Z,53.60
2022-10-02T04:07:04.318Z,56.13
2022-10-02T04:12:10.190Z,56.17
2022-10-02T04:17:16.753Z,65.05
2022-10-02T04:22:31.685Z,61.63
2022-10-02T04:27:35.917Z,76.43
2022-10-02T04:32:39.589Z,70.88
2022-10-02T04:37:56.877Z,66.85
2022-10-02T04:43:07.015Z,63.45
2022-10-02T04:48:30.074Z,67.45
2022-10-02T04:53:41.274Z,59.60
2022-10-02T04:58:50.074Z,70.05
2022-10-02T05:04:07.491Z,65.05
2022-10-02T05:09:14.963Z,70.75
2022-10-02T05:14:42.794Z,71.15
2022-10-02T05:19:57.152Z,75.13
2022-10-02T05:25:08.966Z,68.45
2022-10-02T05:30:12.905Z,63.70
2022-10-02T05:35:22.178Z,71.18
2022-10-02T05:40:31.495Z,74.82
2022-10-02T05:45:37.321Z,65.95
2022-10-02T05:50:39.649Z,70.20
2022-10-02T05:55:45.871Z,57.78
2022-10-02T06:00:50.576Z,57.50
2022-10-02T06:05:55.700Z,57.50
2022-10-02T06:11:01.747Z,64.10
2022-10-02T06:16:09.619Z,57.25
2022-10-02T06:21:24.190Z,58.63
2022-10-02T06:26:31.090Z,60.10
2022-10-02T06:31:37.201Z,56.83
2022-10-02T06:36:48.375Z,53.38
2022-10-02T06:41:59.766Z,51.83
2022-10-02T06:47:07.791Z,40.13
2022-10-02T06:52:14.015Z,51.28
2022-10-02T06:57:27.344Z,46.10
2022-10-02T07:02:44.637Z,59.58
2022-10-02T07:07:51.053Z,34.08
2022-10-02T07:13:12.510Z,49.97
2022-10-02T07:18:21.187Z,37.38
2022-10-02T07:23:41.974Z,33.22
2022-10-02T07:28:47.207Z,30.25
2022-10-02T07:33:59.706Z,31.27
2022-10-02T07:39:08.541Z,25.02
2022-10-02T07:44:19.072Z,26.13
2022-10-02T07:49:28.794Z,24.77
2022-10-02T07:54:55.240Z,22.08
2022-10-02T08:00:00.335Z,15.88
2022-10-02T08:05:05.932Z,18.92
2022-10-02T08:10:11.237Z,14.07
2022-10-02T08:15:16.062Z,15.38
2022-10-02T08:20:26.331Z,7.57
2022-10-02T08:25:32.624Z,14.05
2022-10-02T08:30:35.467Z,13.93
2022-10-02T08:35:43.032Z,10.13
2022-10-02T08:41:04.199Z,8.65
2022-10-02T08:46:24.773Z,7.85
2022-10-02T08:51:42.054Z,9.20
2022-10-02T08:56:49.686Z,13.20
2022-10-02T09:02:02.026Z,7.80
2022-10-02T09:07:15.625Z,9.70
2022-10-02T09:12:35.269Z,11.63
2022-10-02T09:17:48.557Z,7.38
2022-10-02T09:28:14.133Z,9.13
2022-10-02T09:33:27.174Z,7.53
2022-10-02T09:38:55.773Z,8.48
2022-10-02T09:44:13.154Z,6.43
2022-10-02T09:49:42.233Z,12.00
2022-10-02T09:55:17.823Z,9.40
2022-10-02T10:00:22.936Z,12.30
2022-10-02T10:05:42.899Z,8.90
2022-10-02T10:11:03.055Z,7.15
2022-10-02T10:16:28.434Z,12.82
2022-10-02T10:21:49.351Z,11.70
2022-10-02T10:27:07.991Z,10.50
2022-10-02T10:32:34.899Z,4.13
2022-10-02T10:38:00.814Z,9.73
2022-10-02T10:43:20.901Z,9.30
2022-10-02T10:48:34.758Z,7.13
2022-10-02T10:53:52.892Z,5.85
2022-10-02T10:59:12.121Z,9.73
2022-10-02T11:04:26.489Z,9.38
2022-10-02T11:09:48.174Z,11.35
2022-10-02T11:14:59.139Z,9.43
2022-10-02T11:20:24.437Z,6.38
2022-10-02T11:25:46.784Z,11.30
2022-10-02T11:30:55.885Z,5.18
2022-10-02T11:36:08.691Z,7.18
2022-10-02T11:41:28.734Z,7.38
2022-10-02T11:46:48.482Z,7.72
2022-10-02T11:52:06.070Z,9.02
2022-10-02T11:57:22.371Z,8.93
2022-10-02T12:02:27.310Z,6.45
2022-10-02T12:07:39.589Z,9.65
2022-10-02T12:12:51.034Z,9.57
2022-10-02T12:17:58.091Z,8.73
2022-10-02T12:23:25.161Z,6.53
2022-10-02T12:28:33.353Z,8.15
2022-10-02T12:33:42.509Z,9.60
2022-10-02T12:38:53.422Z,5.90
2022-10-02T12:44:05.275Z,8.20
2022-10-02T12:49:27.712Z,7.72
2022-10-02T12:54:48.911Z,5.50
2022-10-02T12:59:55.756Z,5.35
2022-10-02T13:05:20.801Z,6.90
2022-10-02T13:10:24.250Z,7.93
2022-10-02T13:15:37.308Z,8.23
2022-10-02T13:20:40.649Z,13.52
2022-10-02T13:25:49.930Z,8.18
2022-10-02T13:30:57.840Z,6.82
2022-10-02T13:36:07.846Z,9.80
2022-10-02T13:41:18.016Z,7.22
2022-10-02T13:46:32.519Z,9.93
2022-10-02T13:51:39.436Z,7.15
2022-10-02T13:56:49.357Z,13.05
2022-10-02T14:01:58.683Z,10.65
2022-10-02T14:07:05.534Z,7.65
2022-10-02T14:12:19.691Z,8.35
2022-10-02T14:17:28.213Z,8.98
2022-10-02T14:22:35.378Z,7.18
2022-10-02T14:27:53.608Z,13.85
2022-10-02T14:33:04.441Z,7.47
2022-10-02T14:38:21.750Z,10.98
2022-10-02T14:43:50.116Z,7.57
2022-10-02T14:49:05.754Z,7.28
2022-10-02T14:54:17.985Z,5.10
2022-10-02T14:59:29.183Z,3.42
2022-10-02T15:04:42.211Z,5.75
2022-10-02T15:09:58.350Z,7.30
2022-10-02T15:15:05.664Z,6.63
2022-10-02T15:20:20.129Z,7.40
2022-10-02T15:25:26.083Z,7.55
2022-10-02T15:30:29.114Z,7.00
2022-10-02T15:40:38.918Z,10.75
2022-10-02T15:45:51.073Z,5.10
2022-10-02T15:50:55.457Z,5.82
2022-10-02T15:56:05.263Z,11.65
2022-10-02T16:01:14.986Z,8.27
2022-10-02T16:06:22.010Z,7.88
2022-10-02T16:11:37.935Z,8.00
2022-10-02T16:17:04.515Z,13.13
2022-10-02T16:22:17.888Z,10.80
2022-10-02T16:27:35.466Z,6.50
2022-10-02T16:32:40.347Z,32.60
2022-10-02T16:37:46.064Z,44.15
2022-10-02T16:42:52.688Z,9.13
2022-10-02T16:47:56.448Z,7.43
2022-10-02T16:53:01.900Z,12.05
2022-10-02T16:58:13.626Z,9.50
2022-10-02T17:03:22.482Z,6.78
2022-10-02T17:08:30.881Z,9.25
2022-10-02T17:13:43.155Z,6.28
2022-10-02T17:18:48.326Z,15.18
2022-10-02T17:23:58.765Z,13.48
2022-10-02T17:29:07.774Z,10.13
2022-10-02T17:34:17.878Z,9.13
2022-10-02T17:39:28.992Z,16.95
2022-10-02T17:44:43.081Z,10.18
2022-10-02T17:49:53.337Z,13.50
2022-10-02T17:55:19.545Z,12.57
2022-10-02T18:00:24.669Z,10.50
2022-10-02T18:05:33.496Z,12.30
2022-10-02T18:10:40.475Z,15.93
2022-10-02T18:15:54.738Z,12.20
2022-10-02T18:21:15.243Z,12.43
2022-10-02T18:26:24.806Z,11.35
2022-10-02T18:31:55.146Z,9.77
2022-10-02T18:37:09.669Z,11.23
2022-10-02T18:42:28.212Z,12.07
2022-10-02T18:47:41.891Z,9.27
2022-10-02T18:52:54.126Z,10.73
2022-10-02T18:58:07.367Z,12.57
2022-10-02T19:03:18.953Z,15.60
2022-10-02T19:08:24.092Z,16.55
2022-10-02T19:13:27.709Z,9.23
2022-10-02T19:18:32.844Z,10.48
2022-10-02T19:23:36.564Z,12.02
2022-10-02T19:28:46.226Z,12.05
2022-10-02T19:33:51.354Z,16.42
2022-10-02T19:38:55.363Z,14.48
2022-10-02T19:44:00.341Z,14.93
2022-10-02T19:49:05.747Z,12.60
2022-10-02T19:54:12.575Z,12.10
2022-10-02T19:59:17.924Z,9.48
2022-10-02T20:04:23.820Z,13.50
2022-10-02T20:09:30.689Z,17.25
2022-10-02T20:14:37.930Z,18.73
2022-10-02T20:19:45.144Z,16.73
2022-10-02T20:24:51.389Z,12.32
2022-10-02T20:29:57.516Z,11.73
2022-10-02T20:35:04.618Z,11.13
2022-10-02T20:40:09.606Z,15.05
2022-10-02T20:45:12.821Z,17.83
2022-10-02T20:50:36.441Z,12.75
2022-10-02T20:55:43.211Z,16.13
2022-10-02T21:00:52.768Z,17.90
2022-10-02T21:06:13.046Z,18.10
2022-10-02T21:11:20.335Z,18.73
2022-10-02T21:16:42.141Z,15.23
2022-10-02T21:22:14.874Z,15.57
2022-10-02T21:27:27.694Z,13.50
2022-10-02T21:32:49.278Z,20.95
2022-10-02T21:38:00.998Z,17.85
2022-10-02T21:43:13.564Z,18.73
2022-10-02T21:48:47.059Z,15.15
2022-10-02T21:54:07.909Z,19.92
2022-10-02T21:59:20.434Z,17.33
2022-10-02T22:04:40.648Z,22.63
2022-10-02T22:09:47.235Z,19.27
2022-10-02T22:14:53.931Z,17.35
2022-10-02T22:20:00.889Z,14.60
2022-10-02T22:25:12.042Z,21.23
2022-10-02T22:30:23.894Z,19.00
2022-10-02T22:35:31.268Z,16.58
2022-10-02T22:40:41.290Z,15.98
2022-10-02T22:45:49.508Z,13.85
2022-10-02T22:50:53.871Z,14.50
2022-10-02T22:55:56.768Z,11.95
2022-10-02T23:01:02.667Z,12.48
2022-10-02T23:06:07.137Z,19.23
2022-10-02T23:11:14.469Z,14.70
2022-10-02T23:16:23.619Z,19.50
2022-10-02T23:21:30.412Z,19.27
2022-10-02T23:26:34.697Z,16.52
2022-10-02T23:31:44.132Z,22.27
2022-10-02T23:36:48.299Z,25.45
2022-10-02T23:41:53.121Z,22.30
2022-10-02T23:47:08.978Z,29.90
2022-10-02T23:52:20.330Z,16.10
2022-10-02T23:57:33.626Z,21.13
